Wetterdaten: Woche 12.07.10 - 18.07.10 (KW28)
Datum Zeit Temp. A. Feuchte A. Luftdruck Regen Wind Richtung Taupunkt Windchill Windben
12.07.2010 00:00 21,4 C 83 % 1015,5 hPa 0,0 l/m 0,0 km/h NO 18,4 C 21,4 C 0,0 km/h
12.07.2010 01:00 20,8 C 84 % 1015,0 hPa 0,0 l/m 0,0 km/h O 18,0 C 20,8 C 0,0 km/h
12.07.2010 02:00 20,2 C 85 % 1014,7 hPa 0,0 l/m 0,0 km/h S-SO 17,6 C 20,2 C 0,0 km/h
12.07.2010 03:00 19,3 C 86 % 1014,3 hPa 0,0 l/m 0,0 km/h O-NO 16,9 C 19,3 C 0,0 km/h
12.07.2010 04:00 18,8 C 89 % 1014,2 hPa 0,0 l/m 0,0 km/h N-NO 16,9 C 18,8 C 0,0 km/h
12.07.2010 05:00 18,2 C 90 % 1013,7 hPa 0,0 l/m 0,0 km/h SO 16,5 C 18,2 C 0,0 km/h
12.07.2010 06:00 18,2 C 90 % 1013,0 hPa 0,0 l/m 0,0 km/h S-SO 16,5 C 18,2 C 0,0 km/h
12.07.2010 07:00 20,6 C 86 % 1012,7 hPa 0,0 l/m 0,0 km/h S-SO 18,2 C 20,6 C 0,0 km/h
12.07.2010 08:00 29,9 C 59 % 1012,5 hPa 0,0 l/m 1,3 km/h W-SW 21,0 C 29,9 C 0,7 km/h
12.07.2010 09:00 31,1 C 54 % 1013,2 hPa 0,0 l/m 0,0 km/h W-NW 20,7 C 31,1 C 0,0 km/h
12.07.2010 10:00 35,9 C 43 % 1013,2 hPa 0,0 l/m 0,0 km/h S 21,3 C 35,9 C 0,0 km/h
12.07.2010 11:00 35,9 C 41 % 1013,0 hPa 0,0 l/m 4,5 km/h S-SO 20,5 C 35,9 C 2,5 km/h
12.07.2010 12:00 35,7 C 42 % 1012,6 hPa 0,0 l/m 2,6 km/h O-SO 20,8 C 35,7 C 1,4 km/h
12.07.2010 13:00 36,3 C 38 % 1011,9 hPa 0,0 l/m 0,0 km/h NO 19,7 C 36,3 C 0,0 km/h
12.07.2010 14:00 36,4 C 33 % 1011,4 hPa 0,0 l/m 2,6 km/h N-NW 17,5 C 36,4 C 1,4 km/h
12.07.2010 15:00 35,7 C 41 % 1011,2 hPa 0,0 l/m 1,9 km/h W-NW 20,4 C 35,7 C 1,1 km/h
12.07.2010 16:00 32,1 C 47 % 1010,7 hPa 0,0 l/m 5,8 km/h W-SW 19,3 C 32,1 C 3,2 km/h
12.07.2010 17:00 28,1 C 52 % 1014,5 hPa 0,0 l/m 23,3 km/h S 17,3 C 26,5 C 13,0 km/h
12.07.2010 18:00 18,4 C 85 % 1017,6 hPa 3,9 l/m 0,0 km/h N-NO 15,8 C 18,4 C 0,0 km/h
12.07.2010 19:00 19,0 C 85 % 1015,9 hPa 0,4 l/m 0,0 km/h SO 16,4 C 19,0 C 0,0 km/h
12.07.2010 20:00 18,7 C 87 % 1015,8 hPa 0,0 l/m 11,0 km/h N 16,5 C 16,9 C 6,1 km/h
12.07.2010 21:00 18,2 C 86 % 1013,1 hPa 0,0 l/m 0,0 km/h W 15,8 C 18,2 C 0,0 km/h
12.07.2010 22:00 17,3 C 89 % 1012,9 hPa 0,0 l/m 0,0 km/h O-NO 15,5 C 17,3 C 0,0 km/h
12.07.2010 23:00 17,4 C 89 % 1013,6 hPa 0,0 l/m 0,0 km/h N 15,6 C 17,4 C 0,0 km/h
13.07.2010 00:00 17,3 C 90 % 1012,9 hPa 0,0 l/m 0,0 km/h O-SO 15,6 C 17,3 C 0,0 km/h
13.07.2010 01:00 16,6 C 91 % 1012,1 hPa 0,0 l/m 0,0 km/h W-NW 15,1 C 16,6 C 0,0 km/h
13.07.2010 02:00 16,2 C 91 % 1012,5 hPa 0,0 l/m 0,0 km/h N 14,7 C 16,2 C 0,0 km/h
13.07.2010 03:00 17,1 C 91 % 1012,3 hPa 0,0 l/m 0,0 km/h S-SO 15,6 C 17,1 C 0,0 km/h
13.07.2010 04:00 17,3 C 91 % 1012,3 hPa 0,0 l/m 0,0 km/h S-SW 15,8 C 17,3 C 0,0 km/h
13.07.2010 05:00 17,2 C 92 % 1012,0 hPa 0,7 l/m 0,0 km/h SO 15,9 C 17,2 C 0,0 km/h
13.07.2010 06:00 16,9 C 92 % 1011,9 hPa 0,4 l/m 0,0 km/h SO 15,6 C 16,9 C 0,0 km/h
13.07.2010 07:00 18,7 C 91 % 1012,4 hPa 0,0 l/m 0,0 km/h N 17,2 C 18,7 C 0,0 km/h
13.07.2010 08:00 22,4 C 80 % 1012,5 hPa 0,0 l/m 0,0 km/h SW 18,8 C 22,4 C 0,0 km/h
13.07.2010 09:00 27,2 C 61 % 1012,8 hPa 0,0 l/m 8,4 km/h SW 19,0 C 26,8 C 4,7 km/h
13.07.2010 10:00 26,9 C 61 % 1013,0 hPa 0,0 l/m 7,8 km/h S 18,7 C 26,6 C 4,3 km/h
13.07.2010 11:00 29,6 C 56 % 1012,8 hPa 0,0 l/m 0,0 km/h W 19,9 C 29,6 C 0,0 km/h
13.07.2010 12:00 28,9 C 55 % 1012,8 hPa 0,0 l/m 8,4 km/h W-SW 18,9 C 28,6 C 4,7 km/h
13.07.2010 13:00 30,1 C 52 % 1012,2 hPa 0,0 l/m 3,2 km/h W 19,1 C 30,1 C 1,8 km/h
13.07.2010 14:00 30,9 C 46 % 1012,0 hPa 0,0 l/m 3,9 km/h SW 17,9 C 30,9 C 2,2 km/h
13.07.2010 15:00 33,3 C 40 % 1011,5 hPa 0,0 l/m 7,1 km/h S-SO 17,8 C 33,3 C 4,0 km/h
13.07.2010 16:00 34,6 C 37 % 1011,1 hPa 0,0 l/m 4,5 km/h NW 17,7 C 34,6 C 2,5 km/h
13.07.2010 17:00 37,6 C 30 % 1010,6 hPa 0,0 l/m 3,2 km/h W-SW 17,0 C 37,6 C 1,8 km/h
13.07.2010 18:00 35,9 C 31 % 1010,2 hPa 0,0 l/m 1,3 km/h W-SW 16,1 C 35,9 C 0,7 km/h
13.07.2010 19:00 32,8 C 35 % 1009,7 hPa 0,0 l/m 3,9 km/h W 15,3 C 32,8 C 2,2 km/h
13.07.2010 20:00 26,9 C 49 % 1009,6 hPa 0,0 l/m 0,0 km/h NO 15,3 C 26,9 C 0,0 km/h
13.07.2010 21:00 22,6 C 67 % 1009,8 hPa 0,0 l/m 0,0 km/h SO 16,2 C 22,6 C 0,0 km/h
13.07.2010 22:00 20,3 C 76 % 1010,2 hPa 0,0 l/m 0,0 km/h SO 15,9 C 20,3 C 0,0 km/h
13.07.2010 23:00 19,8 C 78 % 1010,3 hPa 0,0 l/m 0,0 km/h SO 15,8 C 19,8 C 0,0 km/h
14.07.2010 00:00 20,3 C 79 % 1010,1 hPa 0,0 l/m 0,0 km/h SO 16,5 C 20,3 C 0,0 km/h
14.07.2010 01:00 20,1 C 80 % 1010,2 hPa 0,0 l/m 0,0 km/h O-SO 16,5 C 20,1 C 0,0 km/h
14.07.2010 02:00 19,4 C 84 % 1010,1 hPa 0,0 l/m 0,0 km/h O 16,6 C 19,4 C 0,0 km/h
14.07.2010 03:00 18,9 C 85 % 1009,4 hPa 0,0 l/m 0,0 km/h O-SO 16,3 C 18,9 C 0,0 km/h
14.07.2010 04:00 18,5 C 88 % 1009,3 hPa 0,0 l/m 0,0 km/h O-SO 16,5 C 18,5 C 0,0 km/h
14.07.2010 05:00 17,4 C 89 % 1009,4 hPa 0,0 l/m 0,0 km/h NO 15,6 C 17,4 C 0,0 km/h
14.07.2010 06:00 17,9 C 91 % 1009,3 hPa 0,0 l/m 0,0 km/h SO 16,4 C 17,9 C 0,0 km/h
14.07.2010 07:00 20,1 C 87 % 1009,0 hPa 0,0 l/m 0,0 km/h NO 17,9 C 20,1 C 0,0 km/h
14.07.2010 08:00 29,1 C 63 % 1009,1 hPa 0,0 l/m 0,0 km/h NO 21,3 C 29,1 C 0,0 km/h
14.07.2010 09:00 33,8 C 47 % 1009,1 hPa 0,0 l/m 0,0 km/h W-SW 20,9 C 33,8 C 0,0 km/h
14.07.2010 10:00 34,9 C 41 % 1008,9 hPa 0,0 l/m 0,0 km/h N 19,7 C 34,9 C 0,0 km/h
14.07.2010 11:00 35,9 C 38 % 1008,4 hPa 0,0 l/m 0,0 km/h NO 19,3 C 35,9 C 0,0 km/h
14.07.2010 12:00 34,0 C 39 % 1007,7 hPa 0,0 l/m 0,0 km/h NW 18,0 C 34,0 C 0,0 km/h
14.07.2010 13:00 35,3 C 36 % 1006,8 hPa 0,0 l/m 0,0 km/h W 17,9 C 35,3 C 0,0 km/h
14.07.2010 14:00 36,4 C 36 % 1005,7 hPa 0,0 l/m 3,2 km/h W-SW 18,9 C 36,4 C 1,8 km/h
14.07.2010 15:00 38,6 C 31 % 1005,0 hPa 0,0 l/m 3,9 km/h W-SW 18,4 C 38,6 C 2,2 km/h
14.07.2010 16:00 42,2 C 27 % 1003,8 hPa 0,0 l/m 0,0 km/h W-SW 19,2 C 42,2 C 0,0 km/h
14.07.2010 17:00 42,4 C 24 % 1003,2 hPa 0,0 l/m 17,5 km/h W-SW 17,5 C 42,4 C 9,7 km/h
14.07.2010 18:00 35,1 C 31 % 1003,4 hPa 0,0 l/m 19,4 km/h O-SO 15,4 C 35,1 C 10,8 km/h
14.07.2010 19:00 26,3 C 58 % 1005,3 hPa 0,0 l/m 0,0 km/h N-NW 17,4 C 26,3 C 0,0 km/h
14.07.2010 20:00 25,1 C 64 % 1006,9 hPa 0,0 l/m 14,3 km/h SO 17,8 C 23,5 C 7,9 km/h
14.07.2010 21:00 23,0 C 67 % 1008,3 hPa 0,0 l/m 0,0 km/h NW 16,5 C 23,0 C 0,0 km/h
14.07.2010 22:00 22,5 C 72 % 1009,4 hPa 0,0 l/m 0,0 km/h SW 17,2 C 22,5 C 0,0 km/h
14.07.2010 23:00 21,8 C 77 % 1011,2 hPa 0,0 l/m 5,2 km/h S-SW 17,6 C 21,8 C 2,9 km/h
15.07.2010 00:00 21,6 C 69 % 1011,6 hPa 0,0 l/m 20,7 km/h S-SW 15,7 C 18,2 C 11,5 km/h
15.07.2010 01:00 19,4 C 78 % 1012,0 hPa 0,4 l/m 1,9 km/h S 15,5 C 19,4 C 1,1 km/h
15.07.2010 02:00 18,5 C 86 % 1012,4 hPa 0,7 l/m 0,0 km/h S 16,1 C 18,5 C 0,0 km/h
15.07.2010 03:00 18,1 C 87 % 1012,8 hPa 0,0 l/m 0,0 km/h N-NO 15,9 C 18,1 C 0,0 km/h
15.07.2010 04:00 18,1 C 88 % 1012,8 hPa 0,4 l/m 0,0 km/h O-SO 16,1 C 18,1 C 0,0 km/h
15.07.2010 05:00 18,1 C 90 % 1013,5 hPa 0,0 l/m 0,0 km/h NO 16,4 C 18,1 C 0,0 km/h
15.07.2010 06:00 17,9 C 91 % 1013,6 hPa 0,0 l/m 0,0 km/h N 16,4 C 17,9 C 0,0 km/h
15.07.2010 07:00 18,4 C 89 % 1014,3 hPa 0,0 l/m 0,0 km/h O-NO 16,6 C 18,4 C 0,0 km/h
15.07.2010 08:00 21,3 C 86 % 1014,7 hPa 0,0 l/m 0,0 km/h SW 18,9 C 21,3 C 0,0 km/h
15.07.2010 09:00 22,8 C 68 % 1015,1 hPa 0,0 l/m 14,9 km/h S 16,6 C 20,7 C 8,3 km/h
15.07.2010 10:00 25,2 C 60 % 1015,3 hPa 0,0 l/m 22,7 km/h SW 16,9 C 22,6 C 12,6 km/h
15.07.2010 11:00 28,3 C 46 % 1015,3 hPa 0,0 l/m 11,0 km/h SW 15,6 C 27,7 C 6,1 km/h
15.07.2010 12:00 28,9 C 42 % 1015,4 hPa 0,0 l/m 16,8 km/h W 14,7 C 27,9 C 9,4 km/h
15.07.2010 13:00 29,3 C 38 % 1015,0 hPa 0,0 l/m 21,4 km/h SW 13,5 C 28,1 C 11,9 km/h
15.07.2010 14:00 29,3 C 38 % 1014,8 hPa 0,0 l/m 20,1 km/h W 13,5 C 28,2 C 11,2 km/h
15.07.2010 15:00 29,8 C 39 % 1014,8 hPa 0,0 l/m 11,0 km/h W 14,3 C 29,4 C 6,1 km/h
15.07.2010 16:00 33,1 C 33 % 1014,8 hPa 0,0 l/m 11,0 km/h NW 14,6 C 33,1 C 6,1 km/h
15.07.2010 17:00 34,8 C 30 % 1014,3 hPa 0,0 l/m 5,8 km/h NW 14,6 C 34,8 C 3,2 km/h
15.07.2010 18:00 33,8 C 31 % 1014,0 hPa 0,0 l/m 5,2 km/h W 14,3 C 33,8 C 2,9 km/h
15.07.2010 19:00 29,8 C 37 % 1013,9 hPa 0,0 l/m 0,0 km/h N 13,5 C 29,8 C 0,0 km/h
15.07.2010 20:00 24,5 C 52 % 1014,0 hPa 0,0 l/m 0,0 km/h N 14,0 C 24,5 C 0,0 km/h
15.07.2010 21:00 20,7 C 66 % 1014,4 hPa 0,0 l/m 0,0 km/h NO 14,1 C 20,7 C 0,0 km/h
15.07.2010 22:00 18,6 C 75 % 1015,0 hPa 0,0 l/m 0,0 km/h O-NO 14,1 C 18,6 C 0,0 km/h
15.07.2010 23:00 17,3 C 80 % 1015,0 hPa 0,0 l/m 0,0 km/h NO 13,8 C 17,3 C 0,0 km/h
16.07.2010 00:00 16,9 C 82 % 1015,0 hPa 0,0 l/m 0,0 km/h NO 13,8 C 16,9 C 0,0 km/h
16.07.2010 01:00 16,4 C 83 % 1014,7 hPa 0,0 l/m 0,0 km/h SO 13,5 C 16,4 C 0,0 km/h
16.07.2010 02:00 15,8 C 85 % 1014,6 hPa 0,0 l/m 0,0 km/h NO 13,3 C 15,8 C 0,0 km/h
16.07.2010 03:00 14,9 C 87 % 1014,6 hPa 0,0 l/m 0,0 km/h O-SO 12,8 C 14,9 C 0,0 km/h
16.07.2010 04:00 14,1 C 89 % 1014,4 hPa 0,0 l/m 0,0 km/h O-SO 12,3 C 14,1 C 0,0 km/h
16.07.2010 05:00 13,8 C 90 % 1014,7 hPa 0,0 l/m 0,0 km/h O-SO 12,2 C 13,8 C 0,0 km/h
16.07.2010 06:00 14,3 C 91 % 1014,9 hPa 0,0 l/m 0,0 km/h SO 12,8 C 14,3 C 0,0 km/h
16.07.2010 07:00 15,9 C 90 % 1014,9 hPa 0,0 l/m 8,4 km/h N-NO 14,3 C 14,8 C 4,7 km/h
16.07.2010 08:00 26,1 C 62 % 1015,3 hPa 0,0 l/m 0,0 km/h S-SO 18,2 C 26,1 C 0,0 km/h
16.07.2010 09:00 29,8 C 48 % 1015,3 hPa 0,0 l/m 5,8 km/h W-NW 17,6 C 29,8 C 3,2 km/h
16.07.2010 10:00 31,2 C 43 % 1015,0 hPa 0,0 l/m 0,0 km/h N-NO 17,1 C 31,2 C 0,0 km/h
16.07.2010 11:00 32,9 C 41 % 1014,9 hPa 0,0 l/m 8,4 km/h SW 17,9 C 32,9 C 4,7 km/h
16.07.2010 12:00 31,3 C 44 % 1014,7 hPa 0,0 l/m 5,2 km/h W 17,6 C 31,3 C 2,9 km/h
16.07.2010 13:00 33,3 C 39 % 1014,5 hPa 0,0 l/m 20,1 km/h SW 17,4 C 33,3 C 11,2 km/h
16.07.2010 14:00 34,0 C 36 % 1014,3 hPa 0,0 l/m 14,3 km/h N-NO 16,8 C 34,0 C 7,9 km/h
16.07.2010 15:00 35,5 C 32 % 1014,1 hPa 0,0 l/m 0,0 km/h W 16,2 C 35,5 C 0,0 km/h
16.07.2010 16:00 38,5 C 24 % 1013,9 hPa 0,0 l/m 0,0 km/h W 14,3 C 38,5 C 0,0 km/h
16.07.2010 17:00 40,9 C 19 % 1013,6 hPa 0,0 l/m 7,8 km/h W-NW 12,7 C 40,9 C 4,3 km/h
16.07.2010 18:00 39,6 C 20 % 1013,4 hPa 0,0 l/m 7,1 km/h NW 12,4 C 39,6 C 4,0 km/h
16.07.2010 19:00 36,1 C 24 % 1013,5 hPa 0,0 l/m 0,0 km/h N-NO 12,3 C 36,1 C 0,0 km/h
16.07.2010 20:00 28,8 C 43 % 1013,7 hPa 0,0 l/m 0,0 km/h NO 15,0 C 28,8 C 0,0 km/h
16.07.2010 21:00 24,5 C 55 % 1014,0 hPa 0,0 l/m 0,0 km/h NO 14,9 C 24,5 C 0,0 km/h
16.07.2010 22:00 22,1 C 63 % 1015,5 hPa 0,0 l/m 0,0 km/h O-NO 14,7 C 22,1 C 0,0 km/h
16.07.2010 23:00 21,3 C 68 % 1015,5 hPa 0,0 l/m 0,0 km/h NO 15,1 C 21,3 C 0,0 km/h
17.07.2010 00:00 19,8 C 73 % 1015,9 hPa 0,0 l/m 0,0 km/h NO 14,8 C 19,8 C 0,0 km/h
17.07.2010 01:00 19,3 C 75 % 1015,6 hPa 0,0 l/m 0,0 km/h NO 14,8 C 19,3 C 0,0 km/h
17.07.2010 02:00 18,5 C 79 % 1016,0 hPa 0,0 l/m 0,0 km/h SO 14,8 C 18,5 C 0,0 km/h
17.07.2010 03:00 17,1 C 81 % 1016,1 hPa 0,0 l/m 0,0 km/h O-SO 13,8 C 17,1 C 0,0 km/h
17.07.2010 04:00 17,1 C 83 % 1016,1 hPa 0,0 l/m 0,0 km/h SO 14,2 C 17,1 C 0,0 km/h
17.07.2010 05:00 16,3 C 86 % 1016,3 hPa 0,0 l/m 0,0 km/h N-NO 14,0 C 16,3 C 0,0 km/h
17.07.2010 06:00 16,9 C 85 % 1016,6 hPa 0,0 l/m 0,0 km/h S 14,4 C 16,9 C 0,0 km/h
17.07.2010 07:00 18,3 C 83 % 1017,2 hPa 0,0 l/m 0,0 km/h N 15,4 C 18,3 C 0,0 km/h
17.07.2010 08:00 23,9 C 59 % 1018,2 hPa 0,0 l/m 0,0 km/h O-NO 15,4 C 23,9 C 0,0 km/h
17.07.2010 09:00 25,4 C 57 % 1018,5 hPa 0,0 l/m 0,0 km/h NW 16,2 C 25,4 C 0,0 km/h
17.07.2010 10:00 25,1 C 53 % 1018,9 hPa 0,0 l/m 1,9 km/h N-NW 14,8 C 25,1 C 1,1 km/h
17.07.2010 11:00 23,1 C 61 % 1019,1 hPa 0,0 l/m 0,0 km/h NW 15,2 C 23,1 C 0,0 km/h
17.07.2010 12:00 21,7 C 73 % 1019,5 hPa 0,4 l/m 0,0 km/h W-NW 16,6 C 21,7 C 0,0 km/h
17.07.2010 13:00 20,5 C 76 % 1019,8 hPa 0,0 l/m 0,0 km/h N 16,1 C 20,5 C 0,0 km/h
17.07.2010 14:00 18,5 C 81 % 1020,5 hPa 0,4 l/m 0,0 km/h SO 15,2 C 18,5 C 0,0 km/h
17.07.2010 15:00 19,0 C 82 % 1020,9 hPa 1,1 l/m 0,0 km/h SO 15,9 C 19,0 C 0,0 km/h
17.07.2010 16:00 20,3 C 77 % 1020,6 hPa 0,0 l/m 0,0 km/h SO 16,1 C 20,3 C 0,0 km/h
17.07.2010 17:00 24,0 C 67 % 1020,3 hPa 0,0 l/m 8,4 km/h S-SO 17,5 C 23,4 C 4,7 km/h
17.07.2010 18:00 22,9 C 61 % 1020,2 hPa 0,0 l/m 1,9 km/h O-NO 15,0 C 22,9 C 1,1 km/h
17.07.2010 19:00 20,3 C 74 % 1020,6 hPa 0,0 l/m 0,0 km/h SO 15,5 C 20,3 C 0,0 km/h
17.07.2010 20:00 19,1 C 80 % 1021,3 hPa 0,0 l/m 0,0 km/h SO 15,6 C 19,1 C 0,0 km/h
17.07.2010 21:00 17,8 C 85 % 1021,8 hPa 0,0 l/m 1,3 km/h SO 15,2 C 17,8 C 0,7 km/h
17.07.2010 22:00 17,4 C 86 % 1022,9 hPa 0,0 l/m 0,0 km/h SO 15,0 C 17,4 C 0,0 km/h
17.07.2010 23:00 17,0 C 87 % 1023,5 hPa 0,0 l/m 0,0 km/h SO 14,8 C 17,0 C 0,0 km/h
18.07.2010 00:00 15,8 C 88 % 1023,9 hPa 0,0 l/m 0,0 km/h O-SO 13,8 C 15,8 C 0,0 km/h
18.07.2010 01:00 14,2 C 90 % 1024,0 hPa 0,0 l/m 0,0 km/h O-NO 12,6 C 14,2 C 0,0 km/h
18.07.2010 02:00 13,8 C 92 % 1024,2 hPa 0,0 l/m 0,0 km/h O-SO 12,5 C 13,8 C 0,0 km/h
18.07.2010 03:00 13,1 C 92 % 1024,2 hPa 0,0 l/m 0,0 km/h NO 11,8 C 13,1 C 0,0 km/h
18.07.2010 04:00 12,4 C 92 % 1024,0 hPa 0,0 l/m 0,0 km/h O-SO 11,1 C 12,4 C 0,0 km/h
18.07.2010 05:00 11,4 C 93 % 1024,0 hPa 0,0 l/m 0,0 km/h O-SO 10,3 C 11,4 C 0,0 km/h
18.07.2010 06:00 11,5 C 93 % 1024,3 hPa 0,0 l/m 0,0 km/h O-SO 10,4 C 11,5 C 0,0 km/h
18.07.2010 07:00 12,8 C 94 % 1024,7 hPa 0,0 l/m 0,0 km/h O-SO 11,9 C 12,8 C 0,0 km/h
18.07.2010 08:00 20,9 C 75 % 1025,0 hPa 0,0 l/m 0,0 km/h W 16,3 C 20,9 C 0,0 km/h
18.07.2010 09:00 25,2 C 55 % 1025,1 hPa 0,0 l/m 2,6 km/h W-NW 15,5 C 25,2 C 1,4 km/h
18.07.2010 10:00 26,4 C 49 % 1024,8 hPa 0,0 l/m 0,0 km/h N-NO 14,8 C 26,4 C 0,0 km/h
18.07.2010 11:00 28,3 C 43 % 1024,5 hPa 0,0 l/m 5,2 km/h N 14,5 C 28,3 C 2,9 km/h
18.07.2010 12:00 27,6 C 40 % 1024,3 hPa 0,0 l/m 12,3 km/h N 12,8 C 26,7 C 6,8 km/h
18.07.2010 13:00 26,2 C 44 % 1023,9 hPa 0,0 l/m 20,1 km/h N 13,0 C 24,2 C 11,2 km/h
18.07.2010 14:00 28,1 C 38 % 1023,3 hPa 0,0 l/m 17,5 km/h N 12,4 C 26,9 C 9,7 km/h
18.07.2010 15:00 29,5 C 37 % 1022,5 hPa 0,0 l/m 4,5 km/h N-NO 13,3 C 29,5 C 2,5 km/h
18.07.2010 16:00 33,3 C 30 % 1022,3 hPa 0,0 l/m 0,0 km/h NO 13,3 C 33,3 C 0,0 km/h
18.07.2010 17:00 30,9 C 29 % 1021,8 hPa 0,0 l/m 2,6 km/h N-NO 10,8 C 30,9 C 1,4 km/h
18.07.2010 18:00 33,4 C 28 % 1021,4 hPa 0,0 l/m 0,0 km/h N 12,4 C 33,4 C 0,0 km/h
18.07.2010 19:00 29,8 C 33 % 1021,0 hPa 0,0 l/m 0,0 km/h N-NO 11,8 C 29,8 C 0,0 km/h
18.07.2010 20:00 23,8 C 43 % 1020,9 hPa 0,0 l/m 0,0 km/h N-NO 10,5 C 23,8 C 0,0 km/h
18.07.2010 21:00 19,8 C 56 % 1021,1 hPa 0,0 l/m 0,0 km/h N-NO 10,8 C 19,8 C 0,0 km/h
18.07.2010 22:00 16,9 C 67 % 1021,5 hPa 0,0 l/m 0,0 km/h O-SO 10,7 C 16,9 C 0,0 km/h
18.07.2010 23:00 15,9 C 71 % 1021,5 hPa 0,0 l/m 0,0 km/h N 10,6 C 15,9 C 0,0 km/h
Min-Datum _ 18.07.10 16.07.10 14.07.10 - 12.07.10 - 18.07.10 18.07.10 12.07.10
_ Min-Zeit 05:30 17:30 17:30 - 00:30 - 05:30 05:30 00:30
Minimum _ 11,4 C 19 % 1003,2 hPa - 0,0 km/h - 10,3 C 11,4 C 0,0 km/h
Max-Datum _ 14.07.10 18.07.10 18.07.10 12.07.10 12.07.10 - 12.07.10 14.07.10 12.07.10
_ Max-Zeit 17:30 07:30 09:30 18:30 17:30 - 10:30 17:30 17:30
Maximum _ 42,4 C 94 % 1025,1 hPa 3,9 l/m 23,3 km/h
S
- 21,3 C 42,4 C 13,0 km/h
S
Durchschnitt _ 24,3 C 64 % 1014,9 hPa #8,5 l/m 2,9 km/h SO 15,8 C 24,1 C 1,6 km/h